Time;durP1;ratioP1;P1;durP2;ratioP2;P2;SDS_P1;SDS_P2;PMS_P1;PMS_P2;Temp;Humidity;BMP_temperature;BMP_pressure;BME280_temperature;BME280_humidity;BME280_pressure;Samples;Min_cycle;Max_cycle;Signal;HPM_P1;HPM_P2
2021/05/14 00:01:49;;;;;;;18.05;16.20;;;12.70;78.40;;;;;;5009248;28;20034;-84
2021/05/14 00:04:19;;;;;;;18.42;16.52;;;12.60;78.80;;;;;;5009963;28;20038;-83
2021/05/14 00:06:48;;;;;;;19.97;17.60;;;12.50;79.10;;;;;;4991295;28;20030;-81
2021/05/14 00:09:14;;;;;;;19.80;17.80;;;12.50;79.40;;;;;;4993660;28;20088;-81
2021/05/14 00:11:41;;;;;;;18.67;16.63;;;12.50;79.60;;;;;;4993414;28;20034;-82
2021/05/14 00:14:07;;;;;;;18.47;16.43;;;12.50;79.70;;;;;;5010326;28;20037;-82
2021/05/14 00:16:33;;;;;;;18.17;16.30;;;12.50;79.70;;;;;;5013311;28;20501;-82
2021/05/14 00:18:59;;;;;;;16.90;15.20;;;12.40;79.70;;;;;;5008337;28;20172;-82
2021/05/14 00:21:33;;;;;;;18.07;16.27;;;12.30;80.00;;;;;;5011181;28;20489;-82
2021/05/14 00:23:59;;;;;;;18.17;16.30;;;12.10;80.20;;;;;;5010118;28;20128;-82
2021/05/14 00:26:25;;;;;;;17.60;15.70;;;12.10;80.60;;;;;;5014495;28;20122;-83
2021/05/14 00:28:51;;;;;;;17.10;15.30;;;12.00;80.80;;;;;;5035322;28;20038;-85
2021/05/14 00:31:18;;;;;;;18.33;15.77;;;12.00;80.90;;;;;;5025717;28;20057;-79
2021/05/14 00:33:43;;;;;;;16.23;14.43;;;11.90;81.20;;;;;;5022780;28;20034;-81
2021/05/14 00:36:10;;;;;;;14.97;13.33;;;12.00;81.20;;;;;;5011132;28;20026;-82
2021/05/14 00:38:36;;;;;;;14.80;13.30;;;12.00;81.10;;;;;;5031305;28;20032;-81
2021/05/14 00:41:03;;;;;;;16.03;14.07;;;12.00;81.00;;;;;;5010401;28;20455;-81
2021/05/14 00:43:29;;;;;;;17.53;14.17;;;12.00;81.00;;;;;;5018479;28;20561;-81
2021/05/14 00:45:56;;;;;;;15.17;13.67;;;11.90;81.10;;;;;;5003019;28;20038;-83
2021/05/14 00:48:21;;;;;;;19.67;14.57;;;11.90;81.20;;;;;;4992912;28;20030;-81
2021/05/14 00:50:47;;;;;;;16.73;14.30;;;11.80;81.30;;;;;;5009068;28;20068;-81
2021/05/14 00:53:13;;;;;;;16.57;13.83;;;11.80;81.50;;;;;;4992986;28;20026;-82
2021/05/14 00:55:38;;;;;;;14.50;13.00;;;11.70;81.50;;;;;;5010933;28;20030;-81
2021/05/14 00:58:04;;;;;;;15.63;13.87;;;11.70;81.70;;;;;;5015992;28;20060;-81
2021/05/14 01:00:30;;;;;;;15.97;14.10;;;11.80;81.70;;;;;;4998631;28;20164;-81
2021/05/14 01:02:55;;;;;;;14.77;13.27;;;11.80;81.60;;;;;;5033095;28;20030;-82
2021/05/14 01:05:22;;;;;;;15.37;13.73;;;11.80;81.70;;;;;;4986634;28;20041;-80
2021/05/14 01:07:50;;;;;;;14.57;13.07;;;11.80;81.60;;;;;;4997032;28;20589;-80
2021/05/14 01:10:17;;;;;;;15.83;13.80;;;11.70;81.60;;;;;;4998811;28;20030;-80
2021/05/14 01:12:43;;;;;;;16.77;13.27;;;11.70;81.60;;;;;;4996281;28;20401;-80
2021/05/14 01:15:09;;;;;;;14.17;12.50;;;11.80;81.70;;;;;;5013193;28;20038;-81
2021/05/14 01:17:34;;;;;;;14.70;13.10;;;11.80;81.60;;;;;;5027867;28;20025;-80
2021/05/14 01:20:01;;;;;;;14.33;12.83;;;11.70;81.40;;;;;;4990935;28;20030;-82
2021/05/14 01:22:28;;;;;;;14.07;12.57;;;11.60;81.50;;;;;;4996278;28;20386;-80
2021/05/14 01:24:54;;;;;;;14.90;13.10;;;11.60;81.80;;;;;;5013071;28;20049;-81
2021/05/14 01:27:19;;;;;;;15.83;14.03;;;11.60;82.30;;;;;;4992177;28;20106;-81
2021/05/14 01:29:45;;;;;;;16.97;14.53;;;11.50;81.90;;;;;;4995033;28;20026;-81
2021/05/14 01:32:11;;;;;;;15.73;13.63;;;11.40;82.00;;;;;;5011990;28;20025;-80
2021/05/14 01:34:37;;;;;;;14.70;13.20;;;11.40;82.20;;;;;;5007815;28;20467;-81
2021/05/14 01:37:03;;;;;;;16.47;13.83;;;11.30;82.30;;;;;;4993883;28;20399;-82
2021/05/14 01:39:28;;;;;;;16.17;14.47;;;11.30;82.50;;;;;;4994409;28;20034;-81
2021/05/14 01:41:55;;;;;;;16.17;14.40;;;11.20;82.50;;;;;;4992523;28;20132;-81
2021/05/14 01:44:21;;;;;;;15.50;13.83;;;11.20;82.50;;;;;;5007197;28;20109;-81
2021/05/14 01:46:48;;;;;;;16.60;13.50;;;11.20;82.70;;;;;;5012139;28;20026;-80
2021/05/14 01:49:13;;;;;;;14.67;13.07;;;11.20;82.80;;;;;;5008016;28;20197;-80
2021/05/14 01:51:39;;;;;;;15.30;13.17;;;11.30;82.80;;;;;;4992948;28;20113;-80
2021/05/14 01:54:05;;;;;;;15.27;13.00;;;11.40;82.80;;;;;;4995940;28;20022;-82
2021/05/14 01:56:31;;;;;;;16.57;13.53;;;11.40;82.60;;;;;;5012250;28;20038;-80
2021/05/14 01:58:57;;;;;;;15.07;12.93;;;11.40;82.40;;;;;;5017989;28;20112;-80
2021/05/14 02:01:23;;;;;;;14.83;13.00;;;11.40;82.50;;;;;;5007077;28;20076;-80
2021/05/14 02:03:49;;;;;;;14.57;12.73;;;11.40;82.50;;;;;;5002203;28;20064;-80
2021/05/14 02:06:14;;;;;;;16.77;12.67;;;11.30;82.60;;;;;;4978687;28;20478;-80
2021/05/14 02:08:40;;;;;;;16.03;13.00;;;11.40;82.70;;;;;;4994575;28;20043;-80
2021/05/14 02:11:09;;;;;;;14.47;12.80;;;11.40;82.50;;;;;;4994318;28;20031;-83
2021/05/14 02:13:40;;;;;;;15.30;12.03;;;11.40;82.50;;;;;;5012476;28;20030;-81
2021/05/14 02:16:07;;;;;;;16.40;12.43;;;11.40;82.60;;;;;;5031998;28;20025;-82
2021/05/14 02:18:34;;;;;;;13.97;12.17;;;11.40;82.50;;;;;;5019275;28;20124;-80
2021/05/14 02:21:00;;;;;;;14.23;12.53;;;11.40;82.50;;;;;;5010730;28;20026;-81
2021/05/14 02:23:26;;;;;;;14.63;13.13;;;11.30;82.50;;;;;;5011210;28;20034;-81
2021/05/14 02:25:51;;;;;;;14.37;12.53;;;11.30;82.60;;;;;;5009107;28;20033;-81
2021/05/14 02:28:17;;;;;;;14.33;12.83;;;11.30;82.70;;;;;;4991554;28;20026;-80
2021/05/14 02:30:43;;;;;;;13.93;12.43;;;11.30;82.60;;;;;;4997501;28;20410;-81
2021/05/14 02:33:09;;;;;;;14.20;12.70;;;11.30;82.70;;;;;;4994354;28;20121;-83
2021/05/14 02:35:35;;;;;;;14.13;12.63;;;11.30;82.70;;;;;;5010926;28;20033;-82
2021/05/14 02:38:02;;;;;;;13.40;12.00;;;11.20;82.80;;;;;;4994954;28;20045;-82
2021/05/14 02:40:28;;;;;;;15.17;11.87;;;11.20;82.90;;;;;;5010678;28;20112;-82
2021/05/14 02:42:55;;;;;;;16.40;13.47;;;11.20;82.90;;;;;;5011115;28;20168;-82
2021/05/14 02:45:21;;;;;;;15.57;13.10;;;11.20;82.90;;;;;;5012350;28;20045;-83
2021/05/14 02:47:46;;;;;;;14.57;13.00;;;11.20;82.90;;;;;;4989085;28;20025;-82
2021/05/14 02:50:12;;;;;;;12.97;11.67;;;11.20;83.00;;;;;;5009731;28;20041;-84
2021/05/14 02:52:38;;;;;;;14.47;12.57;;;11.20;83.00;;;;;;5012046;28;20038;-83
2021/05/14 02:55:05;;;;;;;14.23;12.73;;;11.20;83.00;;;;;;4995153;28;20038;-82
2021/05/14 02:57:31;;;;;;;13.83;12.33;;;11.20;83.00;;;;;;5011625;28;20022;-83
2021/05/14 02:59:57;;;;;;;15.23;12.70;;;11.20;83.00;;;;;;5010349;28;20049;-83
2021/05/14 03:02:22;;;;;;;14.30;12.80;;;11.10;83.00;;;;;;5017761;28;20129;-83
2021/05/14 03:04:48;;;;;;;14.77;12.63;;;11.10;83.00;;;;;;4999385;28;20556;-82
2021/05/14 03:07:14;;;;;;;14.73;12.93;;;11.10;83.00;;;;;;5014266;28;20032;-84
2021/05/14 03:09:39;;;;;;;14.03;12.53;;;11.00;83.00;;;;;;5011112;28;20058;-83
2021/05/14 03:12:05;;;;;;;14.53;13.00;;;11.00;83.10;;;;;;5011821;28;20033;-83
2021/05/14 03:14:31;;;;;;;14.70;13.10;;;11.00;83.20;;;;;;4982349;28;20038;-83
2021/05/14 03:16:57;;;;;;;14.77;12.70;;;11.00;83.10;;;;;;4993289;28;20034;-82
2021/05/14 03:19:22;;;;;;;13.67;12.10;;;11.00;83.20;;;;;;4990347;28;20129;-82
2021/05/14 03:21:48;;;;;;;16.93;13.40;;;11.00;83.20;;;;;;4974603;28;20054;-82
2021/05/14 03:24:14;;;;;;;16.93;13.53;;;11.00;83.20;;;;;;4964975;28;20050;-83
2021/05/14 03:26:39;;;;;;;16.43;13.50;;;11.00;83.30;;;;;;4977220;28;20069;-82
2021/05/14 03:29:05;;;;;;;14.13;12.63;;;10.90;83.30;;;;;;4990799;28;20038;-83
2021/05/14 03:31:31;;;;;;;16.20;13.73;;;10.90;83.40;;;;;;5002656;28;20045;-83
2021/05/14 03:33:56;;;;;;;15.30;13.27;;;10.80;83.50;;;;;;4994914;28;20462;-82
2021/05/14 03:36:22;;;;;;;15.27;13.53;;;10.80;83.60;;;;;;5010138;28;20034;-83
2021/05/14 03:38:49;;;;;;;16.33;13.83;;;10.80;83.60;;;;;;4993712;28;20030;-82
2021/05/14 03:41:44;;;;;;;16.07;13.23;;;10.70;84.20;;;;;;4994680;28;20034;-82
2021/05/14 03:44:04;;;;;;;15.63;13.50;;;10.70;84.00;;;;;;5011251;28;20177;-83
2021/05/14 03:46:30;;;;;;;14.53;12.80;;;10.70;84.00;;;;;;4993250;28;20125;-82
2021/05/14 03:48:57;;;;;;;17.67;13.13;;;10.70;84.00;;;;;;4987077;28;20081;-82
2021/05/14 03:51:23;;;;;;;15.23;13.27;;;10.80;84.20;;;;;;5010365;28;20026;-85
2021/05/14 03:53:48;;;;;;;14.93;12.83;;;10.80;84.10;;;;;;5011993;28;20033;-82
2021/05/14 03:56:15;;;;;;;16.30;12.60;;;10.80;84.00;;;;;;4992842;28;20489;-83
2021/05/14 03:58:40;;;;;;;13.43;12.03;;;10.80;84.00;;;;;;4996072;28;20101;-82
2021/05/14 04:01:06;;;;;;;14.00;12.50;;;10.80;84.00;;;;;;5015953;28;20037;-82
2021/05/14 04:03:32;;;;;;;17.07;13.43;;;10.90;84.00;;;;;;4990979;28;20121;-83
2021/05/14 04:05:58;;;;;;;13.87;12.37;;;10.90;84.00;;;;;;5009811;28;20505;-83
2021/05/14 04:08:24;;;;;;;14.60;12.13;;;10.90;83.90;;;;;;4993831;28;20038;-84
2021/05/14 04:11:05;;;;;;;13.07;10.80;;;10.90;83.80;;;;;;4993213;28;20607;-84
2021/05/14 04:16:16;;;;;;;14.33;11.23;;;11.00;83.90;;;;;;5011563;28;20057;-83
2021/05/14 04:18:42;;;;;;;16.17;11.50;;;11.10;83.90;;;;;;5001208;28;20026;-83
2021/05/14 04:21:08;;;;;;;14.93;10.80;;;11.10;83.80;;;;;;4975000;28;20041;-82
2021/05/14 04:23:34;;;;;;;14.10;11.50;;;11.30;83.60;;;;;;4989324;28;20390;-82
2021/05/14 04:26:00;;;;;;;16.00;11.67;;;11.50;83.10;;;;;;5009670;28;20021;-82
2021/05/14 04:28:26;;;;;;;13.37;10.67;;;11.50;82.60;;;;;;5011441;28;20038;-83
2021/05/14 04:30:52;;;;;;;14.27;11.13;;;11.40;82.60;;;;;;5009203;28;20537;-82
2021/05/14 04:33:17;;;;;;;14.10;10.57;;;11.40;82.70;;;;;;5011003;28;20429;-83
2021/05/14 04:35:43;;;;;;;11.37;10.00;;;11.40;82.70;;;;;;4982628;28;20523;-83
2021/05/14 04:38:08;;;;;;;11.17;9.97;;;11.40;82.80;;;;;;4999867;28;20034;-82
2021/05/14 04:40:34;;;;;;;10.43;9.40;;;11.40;82.80;;;;;;4977438;28;20053;-82
2021/05/14 04:43:01;;;;;;;12.57;10.57;;;11.30;82.70;;;;;;5006463;28;20033;-82
2021/05/14 04:45:27;;;;;;;13.17;9.50;;;11.40;82.90;;;;;;4993288;28;20548;-82
2021/05/14 04:47:53;;;;;;;9.77;8.77;;;11.40;83.00;;;;;;5002722;28;20034;-81
2021/05/14 04:50:19;;;;;;;11.63;8.67;;;11.40;83.00;;;;;;4995935;28;20027;-81
2021/05/14 04:52:45;;;;;;;11.50;8.70;;;11.50;82.80;;;;;;4983710;28;20523;-82
2021/05/14 04:55:12;;;;;;;10.00;8.90;;;11.60;82.60;;;;;;5027764;28;20030;-81
2021/05/14 04:57:38;;;;;;;10.03;8.03;;;11.60;82.40;;;;;;5012752;28;20029;-81
2021/05/14 05:00:05;;;;;;;10.07;9.07;;;11.70;82.30;;;;;;5014030;28;20061;-82
2021/05/14 05:02:32;;;;;;;8.97;8.03;;;11.80;82.00;;;;;;4996097;28;20036;-86
2021/05/14 05:04:58;;;;;;;8.57;7.67;;;11.80;81.70;;;;;;5025238;28;20034;-82
2021/05/14 05:07:25;;;;;;;8.83;7.90;;;11.90;81.60;;;;;;5013363;28;20117;-82
2021/05/14 05:09:51;;;;;;;9.47;8.37;;;11.90;81.40;;;;;;5012222;28;20463;-83
2021/05/14 05:12:17;;;;;;;8.20;7.40;;;12.00;81.10;;;;;;4996238;28;20042;-81
2021/05/14 05:14:43;;;;;;;8.60;7.47;;;12.10;80.90;;;;;;5029440;28;20059;-82
2021/05/14 05:17:09;;;;;;;8.23;7.43;;;12.30;80.70;;;;;;4980849;28;20060;-81
2021/05/14 05:19:35;;;;;;;7.53;6.83;;;12.40;80.20;;;;;;5014556;28;20037;-82
2021/05/14 05:22:00;;;;;;;8.33;7.53;;;12.50;79.60;;;;;;5033828;28;20037;-81
2021/05/14 05:24:26;;;;;;;13.23;8.10;;;12.60;79.30;;;;;;4999975;28;20045;-84
2021/05/14 05:26:52;;;;;;;11.57;9.77;;;12.70;79.10;;;;;;5012430;28;20037;-85
2021/05/14 05:29:18;;;;;;;10.23;9.13;;;12.70;78.70;;;;;;4993096;28;20405;-85
2021/05/14 05:31:44;;;;;;;12.30;8.90;;;12.70;78.80;;;;;;5012333;28;20486;-83
2021/05/14 05:34:10;;;;;;;9.93;7.90;;;13.00;78.70;;;;;;4997419;28;20117;-83
2021/05/14 05:36:36;;;;;;;8.90;7.90;;;13.10;78.00;;;;;;4981417;28;20038;-82
2021/05/14 05:39:03;;;;;;;10.67;7.90;;;13.40;77.30;;;;;;5003467;28;20076;-83
2021/05/14 05:41:29;;;;;;;11.53;8.13;;;13.50;76.40;;;;;;5008745;28;20030;-84
2021/05/14 05:43:55;;;;;;;9.85;7.90;;;13.70;75.80;;;;;;4990381;28;20038;-83
2021/05/14 05:46:22;;;;;;;17.17;11.68;;;13.80;75.30;;;;;;5002700;28;20035;-82
2021/05/14 05:48:49;;;;;;;11.25;9.68;;;14.00;75.10;;;;;;5010130;28;20080;-82
2021/05/14 05:51:15;;;;;;;15.85;14.15;;;14.20;74.50;;;;;;5010510;28;20458;-82
2021/05/14 05:53:41;;;;;;;18.70;15.30;;;14.30;74.20;;;;;;5018054;28;20042;-85
2021/05/14 05:56:07;;;;;;;17.90;15.77;;;14.30;74.40;;;;;;5041717;28;20041;-83
2021/05/14 05:58:33;;;;;;;18.20;15.95;;;14.40;74.00;;;;;;5013372;28;20030;-83
2021/05/14 06:00:59;;;;;;;19.58;14.73;;;14.90;73.60;;;;;;5012074;28;20049;-82
2021/05/14 06:03:25;;;;;;;20.60;14.60;;;15.40;72.40;;;;;;4979482;28;20049;-83
2021/05/14 06:05:51;;;;;;;12.75;9.85;;;16.00;70.60;;;;;;5011312;28;20041;-82
2021/05/14 06:08:16;;;;;;;10.43;8.40;;;16.50;68.00;;;;;;4996103;28;20460;-82
2021/05/14 06:10:42;;;;;;;10.32;7.68;;;17.00;65.90;;;;;;4994382;28;20503;-84
2021/05/14 06:13:08;;;;;;;8.70;7.65;;;17.40;64.30;;;;;;4993662;28;20045;-76
2021/05/14 06:15:34;;;;;;;11.23;7.78;;;17.80;63.20;;;;;;5030219;28;20033;-76
2021/05/14 06:18:00;;;;;;;6.95;6.25;;;18.20;61.90;;;;;;5011784;28;20022;-76
2021/05/14 06:20:28;;;;;;;8.68;6.00;;;18.50;60.50;;;;;;4994755;28;20026;-76
2021/05/14 06:22:53;;;;;;;6.55;5.93;;;18.70;59.40;;;;;;5013052;28;20029;-76
2021/05/14 06:25:19;;;;;;;10.40;6.90;;;19.10;58.40;;;;;;5011427;28;20498;-76
2021/05/14 06:27:46;;;;;;;10.70;7.72;;;19.30;57.50;;;;;;5008917;28;20030;-80
2021/05/14 06:30:12;;;;;;;17.65;9.18;;;19.50;56.90;;;;;;5010463;28;20034;-76
2021/05/14 06:32:38;;;;;;;11.48;8.05;;;19.70;56.40;;;;;;5011672;28;20037;-75
2021/05/14 06:35:05;;;;;;;9.30;8.07;;;19.90;55.10;;;;;;5009426;28;20041;-77
2021/05/14 06:37:31;;;;;;;9.38;7.72;;;20.20;54.20;;;;;;5011214;28;20026;-77
2021/05/14 06:39:57;;;;;;;12.27;8.52;;;20.30;53.10;;;;;;4970404;28;20041;-76
2021/05/14 06:42:23;;;;;;;10.38;7.50;;;20.50;52.70;;;;;;5012387;28;20042;-76
2021/05/14 06:44:48;;;;;;;9.55;8.63;;;20.80;51.30;;;;;;5011330;28;20072;-81
2021/05/14 06:47:14;;;;;;;11.68;7.43;;;21.10;50.80;;;;;;4993346;28;20030;-78
2021/05/14 06:49:40;;;;;;;17.73;13.82;;;21.20;49.60;;;;;;4992718;28;20045;-77
2021/05/14 06:52:05;;;;;;;15.07;13.30;;;21.40;50.10;;;;;;4993252;28;20034;-77
2021/05/14 06:54:31;;;;;;;17.83;14.25;;;21.60;49.90;;;;;;5021175;28;20034;-77
2021/05/14 06:56:57;;;;;;;13.70;10.95;;;22.20;49.10;;;;;;5011789;28;20087;-77
2021/05/14 06:59:23;;;;;;;11.95;10.85;;;22.40;47.40;;;;;;5002090;28;20042;-76
2021/05/14 07:01:49;;;;;;;15.00;13.00;;;22.20;47.40;;;;;;5006385;28;20210;-80
2021/05/14 07:04:15;;;;;;;14.82;10.98;;;21.70;48.80;;;;;;4986257;28;20474;-76
2021/05/14 07:06:41;;;;;;;17.45;12.07;;;21.30;49.00;;;;;;5001008;28;20026;-77
2021/05/14 07:09:06;;;;;;;12.77;10.30;;;21.00;49.50;;;;;;4983783;28;20033;-80
2021/05/14 07:11:32;;;;;;;11.85;9.23;;;20.90;49.30;;;;;;5017920;28;20040;-77
2021/05/14 07:13:58;;;;;;;24.50;10.30;;;20.70;50.00;;;;;;5009978;28;20066;-77
2021/05/14 07:16:23;;;;;;;12.18;9.85;;;20.60;50.20;;;;;;5007763;28;20025;-78
2021/05/14 07:18:49;;;;;;;12.05;8.63;;;20.70;50.40;;;;;;4981439;28;20125;-78
2021/05/14 07:21:15;;;;;;;13.15;9.27;;;20.60;50.10;;;;;;5005288;28;20021;-78
2021/05/14 07:23:41;;;;;;;12.85;9.30;;;20.40;50.80;;;;;;4986365;28;20087;-78
2021/05/14 07:26:07;;;;;;;8.77;7.95;;;20.40;51.10;;;;;;5009399;28;20041;-76
2021/05/14 07:28:32;;;;;;;10.48;7.45;;;20.40;51.00;;;;;;4992567;28;20030;-77
2021/05/14 07:30:58;;;;;;;9.00;7.03;;;20.30;51.50;;;;;;5004883;28;20030;-79
2021/05/14 07:33:24;;;;;;;7.68;6.85;;;20.60;51.30;;;;;;4992315;28;20041;-76
2021/05/14 07:35:49;;;;;;;9.52;7.25;;;21.00;50.30;;;;;;4993344;28;20169;-76
2021/05/14 07:38:15;;;;;;;7.10;6.40;;;21.50;49.10;;;;;;4992618;28;20065;-77
2021/05/14 07:40:41;;;;;;;8.25;6.55;;;21.90;48.00;;;;;;5017817;28;20038;-77
2021/05/14 07:43:07;;;;;;;7.25;6.57;;;22.10;47.60;;;;;;5009055;28;20113;-76
2021/05/14 07:45:33;;;;;;;7.65;6.20;;;22.20;47.10;;;;;;5013963;28;20061;-77
2021/05/14 07:47:58;;;;;;;6.53;5.85;;;22.50;46.60;;;;;;5013786;28;20066;-79
2021/05/14 07:50:26;;;;;;;9.25;7.80;;;22.60;46.20;;;;;;5010611;28;20107;-76
2021/05/14 07:52:52;;;;;;;7.88;6.05;;;22.70;45.20;;;;;;5024943;28;20045;-78
2021/05/14 07:55:17;;;;;;;7.32;5.82;;;22.30;45.80;;;;;;5012276;28;20160;-76
2021/05/14 07:57:43;;;;;;;7.15;5.63;;;22.40;46.00;;;;;;4983714;28;20083;-78
2021/05/14 08:00:10;;;;;;;6.47;5.40;;;22.50;45.60;;;;;;5010180;28;20050;-76
2021/05/14 08:02:35;;;;;;;7.70;6.07;;;22.80;44.70;;;;;;5009974;28;20036;-76
2021/05/14 08:05:01;;;;;;;6.40;5.32;;;23.20;44.40;;;;;;5006151;28;20034;-78
2021/05/14 08:07:27;;;;;;;5.15;4.65;;;23.20;44.30;;;;;;4993401;28;20046;-78
2021/05/14 08:09:52;;;;;;;7.88;4.75;;;23.40;44.10;;;;;;5015322;28;20480;-78
2021/05/14 08:12:18;;;;;;;6.22;4.32;;;24.10;43.10;;;;;;5008724;28;20048;-78
2021/05/14 08:14:44;;;;;;;5.85;5.25;;;24.60;42.40;;;;;;4993603;28;20893;-79
2021/05/14 08:17:10;;;;;;;5.63;5.13;;;24.90;40.80;;;;;;5008317;28;20026;-79
2021/05/14 08:19:36;;;;;;;6.70;6.10;;;25.00;41.40;;;;;;5007038;28;20646;-78
2021/05/14 08:22:01;;;;;;;6.63;5.40;;;25.40;41.10;;;;;;5009149;28;20034;-80
2021/05/14 08:24:27;;;;;;;6.47;5.97;;;25.30;40.80;;;;;;5007995;28;20367;-81
2021/05/14 08:26:53;;;;;;;6.82;6.10;;;25.40;40.70;;;;;;5001611;28;20030;-77
2021/05/14 08:29:18;;;;;;;9.35;8.02;;;25.40;39.00;;;;;;5005244;28;20034;-77
2021/05/14 08:31:44;;;;;;;6.70;6.13;;;24.90;39.20;;;;;;5009495;28;20033;-80
2021/05/14 08:34:11;;;;;;;5.70;5.13;;;24.40;41.50;;;;;;4985850;28;20463;-80
2021/05/14 08:36:37;;;;;;;5.85;5.13;;;24.90;41.60;;;;;;5008163;28;20036;-79
2021/05/14 08:39:04;;;;;;;5.07;4.53;;;25.60;40.80;;;;;;4990464;28;20034;-79
2021/05/14 08:41:30;;;;;;;3.70;3.40;;;26.10;39.30;;;;;;5009737;28;20030;-77
2021/05/14 08:43:55;;;;;;;4.32;3.90;;;26.30;38.80;;;;;;4977790;28;20061;-78
2021/05/14 08:46:25;;;;;;;4.55;4.00;;;26.40;38.40;;;;;;4961231;28;20104;-78
2021/05/14 08:48:53;;;;;;;5.30;3.95;;;26.60;37.00;;;;;;5009740;28;20036;-79
2021/05/14 08:51:26;;;;;;;5.57;4.10;;;26.50;36.90;;;;;;5007215;28;20111;-77
2021/05/14 08:53:52;;;;;;;5.00;4.50;;;26.60;37.10;;;;;;5008761;28;20030;-76
2021/05/14 08:56:18;;;;;;;4.60;4.13;;;26.50;36.80;;;;;;4994510;28;20131;-78
2021/05/14 08:58:44;;;;;;;5.60;4.50;;;26.50;37.50;;;;;;4983105;28;20058;-77
2021/05/14 09:01:10;;;;;;;5.60;3.78;;;26.50;35.80;;;;;;4999141;28;20053;-81
2021/05/14 09:04:07;;;;;;;3.60;3.00;;;26.10;35.90;;;;;;5008521;28;20026;-78
2021/05/14 09:06:35;;;;;;;5.95;3.88;;;26.40;37.70;;;;;;4991288;28;20027;-78
2021/05/14 09:09:05;;;;;;;5.05;3.55;;;26.80;35.00;;;;;;5000436;28;20156;-79
2021/05/14 09:11:57;;;;;;;2.88;2.60;;;26.80;35.90;;;;;;5016028;28;20025;-77
2021/05/14 09:14:34;;;;;;;4.60;3.60;;;27.50;35.80;;;;;;5006176;28;20038;-77
2021/05/14 09:17:10;;;;;;;3.67;3.30;;;28.10;34.20;;;;;;5012944;28;20703;-77
2021/05/14 09:19:38;;;;;;;3.90;2.92;;;28.30;34.00;;;;;;5005401;28;20038;-76
2021/05/14 09:22:16;;;;;;;3.15;2.85;;;28.60;34.10;;;;;;5002928;28;20117;-76
2021/05/14 09:24:47;;;;;;;4.35;2.20;;;28.50;33.00;;;;;;5000787;28;20070;-77
2021/05/14 09:27:29;;;;;;;3.38;2.72;;;28.40;33.30;;;;;;4994501;28;20033;-80
2021/05/14 09:29:57;;;;;;;4.28;2.53;;;28.20;32.30;;;;;;4976958;28;20479;-76
2021/05/14 09:32:28;;;;;;;2.58;2.22;;;28.10;33.10;;;;;;4999017;28;20467;-75
2021/05/14 09:34:56;;;;;;;2.65;2.08;;;27.90;33.20;;;;;;5011887;28;20443;-75
2021/05/14 09:37:25;;;;;;;3.33;3.03;;;27.70;33.70;;;;;;5011167;28;20062;-77
2021/05/14 09:40:15;;;;;;;4.10;3.42;;;27.40;34.00;;;;;;4996957;28;20053;-75
2021/05/14 09:42:41;;;;;;;2.72;2.15;;;27.00;33.50;;;;;;5012706;28;20037;-75
2021/05/14 09:45:25;;;;;;;2.10;1.83;;;26.60;34.10;;;;;;5014815;28;20149;-76
2021/05/14 09:48:26;;;;;;;3.58;2.58;;;26.40;34.50;;;;;;5012814;28;20113;-76
2021/05/14 09:50:52;;;;;;;3.90;3.47;;;25.90;35.70;;;;;;5012896;28;20024;-76
2021/05/14 09:53:20;;;;;;;3.58;1.80;;;25.30;36.10;;;;;;5020538;28;20069;-78
2021/05/14 09:55:50;;;;;;;3.38;2.20;;;24.70;37.00;;;;;;5021092;28;20536;-75
2021/05/14 09:58:23;;;;;;;2.88;1.50;;;24.70;37.80;;;;;;5019850;28;20080;-78
2021/05/14 10:00:49;;;;;;;2.67;1.80;;;25.20;35.90;;;;;;5023329;28;20053;-75
2021/05/14 10:03:20;;;;;;;2.47;1.65;;;25.10;33.40;;;;;;5004056;28;20034;-75
2021/05/14 10:05:48;;;;;;;2.78;1.45;;;24.70;35.00;;;;;;5023768;28;20042;-79
2021/05/14 10:08:19;;;;;;;2.22;1.25;;;24.60;35.80;;;;;;5016457;28;20057;-78
2021/05/14 10:10:45;;;;;;;1.95;1.10;;;24.90;34.70;;;;;;4999422;28;20501;-79
2021/05/14 10:13:11;;;;;;;3.03;1.20;;;25.10;34.60;;;;;;5026078;28;20037;-76
2021/05/14 10:15:38;;;;;;;5.72;1.35;;;25.50;34.10;;;;;;5032290;28;20025;-76
2021/05/14 10:18:07;;;;;;;1.15;0.85;;;25.80;33.70;;;;;;5015179;28;20474;-76
2021/05/14 10:20:36;;;;;;;1.90;0.80;;;25.70;33.50;;;;;;5013372;28;20109;-76
2021/05/14 10:23:03;;;;;;;1.48;0.82;;;25.90;33.50;;;;;;5016018;28;20026;-76
2021/05/14 10:25:39;;;;;;;2.10;1.20;;;26.30;32.90;;;;;;5010548;28;20044;-75
2021/05/14 10:28:10;;;;;;;2.05;1.30;;;26.30;32.20;;;;;;5011786;28;20053;-74
2021/05/14 10:30:35;;;;;;;2.58;1.00;;;26.10;31.00;;;;;;5009272;28;20022;-74
2021/05/14 10:33:03;;;;;;;3.65;1.20;;;25.80;33.00;;;;;;5011889;28;20034;-75
2021/05/14 10:35:30;;;;;;;2.05;0.85;;;25.90;33.30;;;;;;5010074;28;20038;-74
2021/05/14 10:38:04;;;;;;;3.75;1.52;;;26.20;33.40;;;;;;5010797;28;20038;-74
2021/05/14 10:40:38;;;;;;;1.80;1.00;;;26.40;31.70;;;;;;5009928;28;20076;-76
2021/05/14 10:43:25;;;;;;;2.47;0.77;;;26.00;32.80;;;;;;5012266;28;20037;-76
2021/05/14 10:46:03;;;;;;;3.03;0.98;;;25.90;32.90;;;;;;5007534;28;20121;-78
2021/05/14 10:48:28;;;;;;;2.95;0.95;;;25.50;32.10;;;;;;5009901;28;20335;-78
2021/05/14 10:50:58;;;;;;;2.30;0.95;;;25.20;33.20;;;;;;5009702;28;20044;-75
2021/05/14 10:53:30;;;;;;;1.90;0.88;;;25.00;33.60;;;;;;5007940;28;20485;-79
2021/05/14 10:56:18;;;;;;;3.83;1.08;;;24.80;33.10;;;;;;5012566;28;20058;-77
2021/05/14 10:58:44;;;;;;;1.50;0.70;;;24.50;34.30;;;;;;5009817;28;20030;-75
2021/05/14 11:01:28;;;;;;;1.88;0.70;;;24.50;34.30;;;;;;4999390;28;20184;-76
2021/05/14 11:03:54;;;;;;;3.25;0.95;;;24.90;34.00;;;;;;5010066;28;20065;-77
2021/05/14 11:06:20;;;;;;;4.78;1.15;;;25.60;33.50;;;;;;5010272;28;20022;-78
2021/05/14 11:08:59;;;;;;;2.53;0.80;;;25.90;32.90;;;;;;4993141;28;20188;-78
2021/05/14 11:11:25;;;;;;;2.35;0.93;;;25.80;30.30;;;;;;5009535;28;20053;-76
2021/05/14 11:13:55;;;;;;;3.00;1.23;;;25.50;31.00;;;;;;5009915;28;20096;-76
2021/05/14 11:16:44;;;;;;;3.70;1.20;;;25.10;32.60;;;;;;4991170;28;20030;-76
2021/05/14 11:19:11;;;;;;;2.40;1.10;;;24.60;31.50;;;;;;5010313;28;20026;-77
2021/05/14 11:22:25;;;;;;;3.25;1.10;;;24.20;33.80;;;;;;5010667;28;20049;-77
2021/05/14 11:25:01;;;;;;;2.50;1.10;;;24.00;34.20;;;;;;5008924;28;20604;-76
2021/05/14 11:27:35;;;;;;;4.32;1.00;;;23.70;34.90;;;;;;5011426;28;20030;-76
2021/05/14 11:30:03;;;;;;;3.05;1.00;;;23.50;34.70;;;;;;4991888;28;20069;-76
2021/05/14 11:32:37;;;;;;;2.75;1.25;;;23.30;35.00;;;;;;4991522;28;20081;-78
2021/05/14 11:35:14;;;;;;;2.60;1.10;;;23.30;35.50;;;;;;4991593;28;20045;-76
2021/05/14 11:37:51;;;;;;;3.03;1.02;;;23.40;35.70;;;;;;4990975;28;20038;-76
2021/05/14 11:40:21;;;;;;;2.83;0.80;;;23.60;35.80;;;;;;5012674;28;20029;-76
2021/05/14 11:42:49;;;;;;;2.00;0.98;;;24.00;34.80;;;;;;5009368;28;20029;-77
2021/05/14 11:45:22;;;;;;;3.08;0.95;;;24.50;34.40;;;;;;5012039;28;20034;-81
2021/05/14 11:47:49;;;;;;;;;;;24.70;34.00;;;;;;4991558;28;20027;-78
2021/05/14 11:50:36;;;;;;;3.28;1.30;;;24.90;34.10;;;;;;5004967;28;19916;-81
2021/05/14 11:53:05;;;;;;;3.53;1.30;;;25.20;33.60;;;;;;5007756;28;20038;-77
2021/05/14 11:55:32;;;;;;;6.43;1.30;;;25.50;32.90;;;;;;4994103;28;20036;-79
2021/05/14 11:57:59;;;;;;;3.20;1.30;;;25.60;32.40;;;;;;5008956;28;20042;-77
2021/05/14 12:00:29;;;;;;;1.92;0.88;;;25.30;31.20;;;;;;5012621;28;20046;-76
2021/05/14 12:02:59;;;;;;;2.50;1.30;;;25.00;32.30;;;;;;5016898;28;20109;-77
2021/05/14 12:05:26;;;;;;;2.55;1.10;;;24.80;33.00;;;;;;5013874;28;20065;-76
2021/05/14 12:08:13;;;;;;;1.95;0.80;;;24.50;34.00;;;;;;5011583;28;20022;-76
2021/05/14 12:11:01;;;;;;;2.50;0.82;;;24.50;34.00;;;;;;4997780;28;20533;-77
2021/05/14 12:13:29;;;;;;;1.98;0.90;;;24.60;34.20;;;;;;4993846;28;20054;-76
2021/05/14 12:16:03;;;;;;;1.40;0.70;;;24.50;33.70;;;;;;5008756;28;20030;-77
2021/05/14 12:18:30;;;;;;;2.58;0.90;;;24.50;34.10;;;;;;5012806;28;20030;-75
2021/05/14 12:20:57;;;;;;;1.98;0.80;;;24.40;34.10;;;;;;4989348;28;20041;-76
2021/05/14 12:23:26;;;;;;;4.10;1.40;;;24.40;34.20;;;;;;4974455;28;20035;-77
2021/05/14 12:25:56;;;;;;;2.60;0.90;;;24.40;33.20;;;;;;4991693;28;20039;-77
2021/05/14 12:28:33;;;;;;;3.10;0.95;;;24.10;33.30;;;;;;4997779;28;20032;-76
2021/05/14 12:31:09;;;;;;;2.38;0.80;;;23.90;33.90;;;;;;5010803;28;20557;-77
2021/05/14 12:33:54;;;;;;;2.28;0.80;;;23.50;33.80;;;;;;5002076;28;20038;-76
2021/05/14 12:36:34;;;;;;;3.25;0.68;;;23.10;33.70;;;;;;4991671;28;20130;-78
2021/05/14 12:39:09;;;;;;;1.75;0.60;;;22.70;35.40;;;;;;5006168;28;20578;-78
2021/05/14 12:41:59;;;;;;;1.75;0.65;;;22.80;36.00;;;;;;4993987;28;20073;-76
2021/05/14 12:44:32;;;;;;;1.25;0.73;;;23.00;35.50;;;;;;5008638;28;20386;-76
2021/05/14 12:47:10;;;;;;;2.85;0.50;;;23.30;35.40;;;;;;4993266;28;20088;-76